sensor_id;sensor_type;location;lat;lon;timestamp;P1;durP1;ratioP1;P2;durP2;ratioP2
43933;SDS011;59081;42.706;23.306;2023-06-14T00:01:11;6.00;;;4.95;;
43933;SDS011;59081;42.706;23.306;2023-06-14T00:03:38;5.57;;;4.78;;
43933;SDS011;59081;42.706;23.306;2023-06-14T00:06:04;6.38;;;5.03;;
43933;SDS011;59081;42.706;23.306;2023-06-14T00:08:29;9.73;;;5.32;;
43933;SDS011;59081;42.706;23.306;2023-06-14T00:10:55;12.88;;;5.47;;
43933;SDS011;59081;42.706;23.306;2023-06-14T00:13:21;6.53;;;5.72;;
43933;SDS011;59081;42.706;23.306;2023-06-14T00:15:47;5.70;;;4.93;;
43933;SDS011;59081;42.706;23.306;2023-06-14T00:18:12;6.00;;;4.93;;
43933;SDS011;59081;42.706;23.306;2023-06-14T00:20:38;8.20;;;5.07;;
43933;SDS011;59081;42.706;23.306;2023-06-14T00:23:04;7.70;;;5.15;;
43933;SDS011;59081;42.706;23.306;2023-06-14T00:25:30;7.45;;;5.70;;
43933;SDS011;59081;42.706;23.306;2023-06-14T00:27:57;7.57;;;5.00;;
43933;SDS011;59081;42.706;23.306;2023-06-14T00:30:23;6.53;;;4.70;;
43933;SDS011;59081;42.706;23.306;2023-06-14T00:32:49;6.18;;;5.00;;
43933;SDS011;59081;42.706;23.306;2023-06-14T00:35:15;7.35;;;5.57;;
43933;SDS011;59081;42.706;23.306;2023-06-14T00:37:41;7.20;;;5.03;;
43933;SDS011;59081;42.706;23.306;2023-06-14T00:40:06;6.65;;;5.10;;
43933;SDS011;59081;42.706;23.306;2023-06-14T00:42:35;7.10;;;5.47;;
43933;SDS011;59081;42.706;23.306;2023-06-14T00:45:01;6.50;;;5.38;;
43933;SDS011;59081;42.706;23.306;2023-06-14T00:47:26;6.88;;;5.45;;
43933;SDS011;59081;42.706;23.306;2023-06-14T00:49:55;7.45;;;4.75;;
43933;SDS011;59081;42.706;23.306;2023-06-14T00:52:22;7.20;;;5.20;;
43933;SDS011;59081;42.706;23.306;2023-06-14T00:54:49;10.82;;;5.65;;
43933;SDS011;59081;42.706;23.306;2023-06-14T00:57:15;5.82;;;4.97;;
43933;SDS011;59081;42.706;23.306;2023-06-14T00:59:47;8.48;;;5.78;;
43933;SDS011;59081;42.706;23.306;2023-06-14T01:02:14;9.95;;;5.70;;
43933;SDS011;59081;42.706;23.306;2023-06-14T01:04:40;8.18;;;5.47;;
43933;SDS011;59081;42.706;23.306;2023-06-14T01:07:18;8.02;;;4.95;;
43933;SDS011;59081;42.706;23.306;2023-06-14T01:15:34;8.40;;;5.65;;
43933;SDS011;59081;42.706;23.306;2023-06-14T01:18:01;5.95;;;5.10;;
43933;SDS011;59081;42.706;23.306;2023-06-14T01:20:31;6.38;;;5.78;;
43933;SDS011;59081;42.706;23.306;2023-06-14T01:22:58;13.18;;;5.80;;
43933;SDS011;59081;42.706;23.306;2023-06-14T01:25:25;8.50;;;5.35;;
43933;SDS011;59081;42.706;23.306;2023-06-14T01:28:02;12.27;;;5.47;;
43933;SDS011;59081;42.706;23.306;2023-06-14T01:30:35;7.45;;;5.30;;
43933;SDS011;59081;42.706;23.306;2023-06-14T01:33:03;7.75;;;5.90;;
43933;SDS011;59081;42.706;23.306;2023-06-14T01:35:30;7.47;;;4.88;;
43933;SDS011;59081;42.706;23.306;2023-06-14T01:37:56;6.95;;;5.43;;
43933;SDS011;59081;42.706;23.306;2023-06-14T01:40:23;6.32;;;5.63;;
43933;SDS011;59081;42.706;23.306;2023-06-14T01:42:50;6.07;;;5.47;;
43933;SDS011;59081;42.706;23.306;2023-06-14T01:45:18;8.25;;;5.82;;
43933;SDS011;59081;42.706;23.306;2023-06-14T01:47:45;14.43;;;5.80;;
43933;SDS011;59081;42.706;23.306;2023-06-14T01:50:12;9.18;;;5.38;;
43933;SDS011;59081;42.706;23.306;2023-06-14T01:52:38;6.80;;;5.18;;
43933;SDS011;59081;42.706;23.306;2023-06-14T01:55:07;9.18;;;5.75;;
43933;SDS011;59081;42.706;23.306;2023-06-14T01:57:33;9.70;;;5.97;;
43933;SDS011;59081;42.706;23.306;2023-06-14T01:59:58;7.10;;;5.47;;
43933;SDS011;59081;42.706;23.306;2023-06-14T02:02:24;8.98;;;5.43;;
43933;SDS011;59081;42.706;23.306;2023-06-14T02:04:52;9.07;;;5.25;;
43933;SDS011;59081;42.706;23.306;2023-06-14T02:07:17;6.47;;;5.53;;
43933;SDS011;59081;42.706;23.306;2023-06-14T02:09:43;11.85;;;5.60;;
43933;SDS011;59081;42.706;23.306;2023-06-14T02:12:09;8.57;;;5.80;;
43933;SDS011;59081;42.706;23.306;2023-06-14T02:14:35;13.32;;;6.55;;
43933;SDS011;59081;42.706;23.306;2023-06-14T02:17:01;7.47;;;5.45;;
43933;SDS011;59081;42.706;23.306;2023-06-14T02:19:27;11.30;;;5.90;;
43933;SDS011;59081;42.706;23.306;2023-06-14T02:21:52;9.75;;;6.03;;
43933;SDS011;59081;42.706;23.306;2023-06-14T02:24:18;9.05;;;6.15;;
43933;SDS011;59081;42.706;23.306;2023-06-14T02:26:44;10.75;;;5.93;;
43933;SDS011;59081;42.706;23.306;2023-06-14T02:29:09;10.48;;;6.07;;
43933;SDS011;59081;42.706;23.306;2023-06-14T02:31:37;10.98;;;5.97;;
43933;SDS011;59081;42.706;23.306;2023-06-14T02:34:06;9.55;;;5.75;;
43933;SDS011;59081;42.706;23.306;2023-06-14T02:36:35;11.65;;;6.55;;
43933;SDS011;59081;42.706;23.306;2023-06-14T02:41:32;11.05;;;6.55;;
43933;SDS011;59081;42.706;23.306;2023-06-14T02:43:57;10.35;;;6.63;;
43933;SDS011;59081;42.706;23.306;2023-06-14T02:46:23;13.15;;;7.15;;
43933;SDS011;59081;42.706;23.306;2023-06-14T02:48:49;11.93;;;7.28;;
43933;SDS011;59081;42.706;23.306;2023-06-14T02:51:15;11.02;;;6.32;;
43933;SDS011;59081;42.706;23.306;2023-06-14T02:53:40;6.60;;;5.32;;
43933;SDS011;59081;42.706;23.306;2023-06-14T02:56:06;9.52;;;6.00;;
43933;SDS011;59081;42.706;23.306;2023-06-14T02:58:31;11.32;;;5.82;;
43933;SDS011;59081;42.706;23.306;2023-06-14T03:00:58;9.32;;;6.50;;
43933;SDS011;59081;42.706;23.306;2023-06-14T03:03:29;8.93;;;6.32;;
43933;SDS011;59081;42.706;23.306;2023-06-14T03:05:55;9.50;;;6.63;;
43933;SDS011;59081;42.706;23.306;2023-06-14T03:08:23;7.18;;;5.63;;
43933;SDS011;59081;42.706;23.306;2023-06-14T03:10:52;10.82;;;6.78;;
43933;SDS011;59081;42.706;23.306;2023-06-14T03:13:18;8.02;;;5.82;;
43933;SDS011;59081;42.706;23.306;2023-06-14T03:15:47;10.73;;;6.20;;
43933;SDS011;59081;42.706;23.306;2023-06-14T03:18:15;9.50;;;6.80;;
43933;SDS011;59081;42.706;23.306;2023-06-14T03:20:45;10.30;;;6.97;;
43933;SDS011;59081;42.706;23.306;2023-06-14T03:23:11;9.05;;;6.75;;
43933;SDS011;59081;42.706;23.306;2023-06-14T03:25:37;13.73;;;6.85;;
43933;SDS011;59081;42.706;23.306;2023-06-14T03:28:06;13.60;;;8.15;;
43933;SDS011;59081;42.706;23.306;2023-06-14T03:30:32;10.48;;;6.55;;
43933;SDS011;59081;42.706;23.306;2023-06-14T03:32:58;11.88;;;6.28;;
43933;SDS011;59081;42.706;23.306;2023-06-14T03:35:26;11.57;;;6.55;;
43933;SDS011;59081;42.706;23.306;2023-06-14T03:37:55;12.95;;;6.80;;
43933;SDS011;59081;42.706;23.306;2023-06-14T03:40:23;8.18;;;5.85;;
43933;SDS011;59081;42.706;23.306;2023-06-14T03:42:53;8.02;;;5.88;;
43933;SDS011;59081;42.706;23.306;2023-06-14T03:45:19;12.80;;;5.85;;
43933;SDS011;59081;42.706;23.306;2023-06-14T03:47:45;9.98;;;6.47;;
43933;SDS011;59081;42.706;23.306;2023-06-14T03:50:11;8.77;;;6.10;;
43933;SDS011;59081;42.706;23.306;2023-06-14T03:52:37;10.52;;;5.78;;
43933;SDS011;59081;42.706;23.306;2023-06-14T03:55:03;8.35;;;6.78;;
43933;SDS011;59081;42.706;23.306;2023-06-14T03:57:29;7.63;;;6.07;;
43933;SDS011;59081;42.706;23.306;2023-06-14T03:59:58;12.02;;;6.30;;
43933;SDS011;59081;42.706;23.306;2023-06-14T04:02:23;9.52;;;7.00;;
43933;SDS011;59081;42.706;23.306;2023-06-14T04:04:50;9.73;;;6.38;;
43933;SDS011;59081;42.706;23.306;2023-06-14T04:07:16;10.20;;;6.93;;
43933;SDS011;59081;42.706;23.306;2023-06-14T04:09:45;8.27;;;6.38;;
43933;SDS011;59081;42.706;23.306;2023-06-14T04:12:11;10.18;;;6.30;;
43933;SDS011;59081;42.706;23.306;2023-06-14T04:14:37;15.73;;;6.50;;
43933;SDS011;59081;42.706;23.306;2023-06-14T04:17:04;9.48;;;7.47;;
43933;SDS011;59081;42.706;23.306;2023-06-14T04:19:30;9.82;;;7.07;;
43933;SDS011;59081;42.706;23.306;2023-06-14T04:21:56;9.57;;;6.13;;
43933;SDS011;59081;42.706;23.306;2023-06-14T04:24:22;9.35;;;6.95;;
43933;SDS011;59081;42.706;23.306;2023-06-14T04:26:48;10.38;;;6.70;;
43933;SDS011;59081;42.706;23.306;2023-06-14T04:29:16;14.25;;;6.53;;
43933;SDS011;59081;42.706;23.306;2023-06-14T04:31:48;10.88;;;9.48;;
43933;SDS011;59081;42.706;23.306;2023-06-14T04:34:14;14.75;;;9.88;;
43933;SDS011;59081;42.706;23.306;2023-06-14T04:36:43;24.73;;;18.73;;
43933;SDS011;59081;42.706;23.306;2023-06-14T04:39:18;14.00;;;8.55;;
43933;SDS011;59081;42.706;23.306;2023-06-14T04:41:44;9.65;;;6.50;;
43933;SDS011;59081;42.706;23.306;2023-06-14T04:44:10;12.43;;;6.70;;
43933;SDS011;59081;42.706;23.306;2023-06-14T04:46:38;8.80;;;6.10;;
43933;SDS011;59081;42.706;23.306;2023-06-14T04:49:11;10.25;;;7.50;;
43933;SDS011;59081;42.706;23.306;2023-06-14T04:51:39;13.20;;;7.55;;
43933;SDS011;59081;42.706;23.306;2023-06-14T04:54:06;14.40;;;6.95;;
43933;SDS011;59081;42.706;23.306;2023-06-14T04:56:38;12.07;;;6.97;;
43933;SDS011;59081;42.706;23.306;2023-06-14T04:59:07;10.80;;;7.03;;
43933;SDS011;59081;42.706;23.306;2023-06-14T05:01:37;10.95;;;7.15;;
43933;SDS011;59081;42.706;23.306;2023-06-14T05:04:03;13.32;;;7.18;;
43933;SDS011;59081;42.706;23.306;2023-06-14T05:06:29;10.02;;;7.70;;
43933;SDS011;59081;42.706;23.306;2023-06-14T05:08:58;12.95;;;6.68;;
43933;SDS011;59081;42.706;23.306;2023-06-14T05:11:25;17.17;;;7.63;;
43933;SDS011;59081;42.706;23.306;2023-06-14T05:13:52;12.40;;;8.00;;
43933;SDS011;59081;42.706;23.306;2023-06-14T05:16:17;11.70;;;6.90;;
43933;SDS011;59081;42.706;23.306;2023-06-14T05:18:44;12.38;;;8.07;;
43933;SDS011;59081;42.706;23.306;2023-06-14T05:21:12;14.65;;;8.43;;
43933;SDS011;59081;42.706;23.306;2023-06-14T05:23:38;12.60;;;8.52;;
43933;SDS011;59081;42.706;23.306;2023-06-14T05:26:03;12.82;;;8.05;;
43933;SDS011;59081;42.706;23.306;2023-06-14T05:28:29;15.30;;;9.07;;
43933;SDS011;59081;42.706;23.306;2023-06-14T05:30:56;15.45;;;8.90;;
43933;SDS011;59081;42.706;23.306;2023-06-14T05:33:21;13.80;;;7.20;;
43933;SDS011;59081;42.706;23.306;2023-06-14T05:35:47;11.20;;;8.52;;
43933;SDS011;59081;42.706;23.306;2023-06-14T05:38:12;10.48;;;8.15;;
43933;SDS011;59081;42.706;23.306;2023-06-14T05:40:38;12.93;;;8.20;;
43933;SDS011;59081;42.706;23.306;2023-06-14T05:43:03;14.70;;;8.63;;
43933;SDS011;59081;42.706;23.306;2023-06-14T05:45:29;14.13;;;8.95;;
43933;SDS011;59081;42.706;23.306;2023-06-14T05:47:55;13.60;;;8.20;;
43933;SDS011;59081;42.706;23.306;2023-06-14T05:50:21;13.45;;;8.68;;
43933;SDS011;59081;42.706;23.306;2023-06-14T05:52:46;13.80;;;7.80;;
43933;SDS011;59081;42.706;23.306;2023-06-14T05:55:12;8.77;;;6.60;;
43933;SDS011;59081;42.706;23.306;2023-06-14T05:57:38;12.00;;;7.18;;
43933;SDS011;59081;42.706;23.306;2023-06-14T06:00:04;14.25;;;8.18;;
43933;SDS011;59081;42.706;23.306;2023-06-14T06:02:41;36.58;;;9.25;;
43933;SDS011;59081;42.706;23.306;2023-06-14T06:05:08;14.55;;;9.38;;
43933;SDS011;59081;42.706;23.306;2023-06-14T06:07:41;11.73;;;10.20;;
43933;SDS011;59081;42.706;23.306;2023-06-14T06:10:07;16.88;;;10.90;;
43933;SDS011;59081;42.706;23.306;2023-06-14T06:12:35;15.35;;;10.77;;
43933;SDS011;59081;42.706;23.306;2023-06-14T06:15:01;14.00;;;10.73;;
43933;SDS011;59081;42.706;23.306;2023-06-14T06:17:26;14.90;;;10.43;;
43933;SDS011;59081;42.706;23.306;2023-06-14T06:19:52;15.02;;;10.63;;
43933;SDS011;59081;42.706;23.306;2023-06-14T06:22:17;17.33;;;10.20;;
43933;SDS011;59081;42.706;23.306;2023-06-14T06:24:43;20.85;;;11.48;;
43933;SDS011;59081;42.706;23.306;2023-06-14T06:27:08;18.67;;;11.35;;
43933;SDS011;59081;42.706;23.306;2023-06-14T06:29:35;19.10;;;10.75;;
43933;SDS011;59081;42.706;23.306;2023-06-14T06:32:01;15.40;;;10.60;;
43933;SDS011;59081;42.706;23.306;2023-06-14T06:34:27;17.73;;;11.50;;
43933;SDS011;59081;42.706;23.306;2023-06-14T06:36:53;15.32;;;10.73;;
43933;SDS011;59081;42.706;23.306;2023-06-14T06:39:18;15.60;;;10.90;;
43933;SDS011;59081;42.706;23.306;2023-06-14T06:41:44;16.92;;;11.27;;
43933;SDS011;59081;42.706;23.306;2023-06-14T06:44:09;15.20;;;11.52;;
43933;SDS011;59081;42.706;23.306;2023-06-14T06:46:36;21.80;;;13.10;;
43933;SDS011;59081;42.706;23.306;2023-06-14T06:49:05;17.95;;;12.18;;
43933;SDS011;59081;42.706;23.306;2023-06-14T06:51:31;18.40;;;12.35;;
43933;SDS011;59081;42.706;23.306;2023-06-14T06:53:57;17.13;;;12.25;;
43933;SDS011;59081;42.706;23.306;2023-06-14T06:56:23;16.20;;;12.25;;
43933;SDS011;59081;42.706;23.306;2023-06-14T06:58:52;16.85;;;13.15;;
43933;SDS011;59081;42.706;23.306;2023-06-14T07:01:17;20.33;;;13.02;;
43933;SDS011;59081;42.706;23.306;2023-06-14T07:03:44;20.15;;;13.10;;
43933;SDS011;59081;42.706;23.306;2023-06-14T07:06:10;18.52;;;13.45;;
43933;SDS011;59081;42.706;23.306;2023-06-14T07:08:36;18.48;;;12.75;;
43933;SDS011;59081;42.706;23.306;2023-06-14T07:11:06;17.23;;;13.73;;
43933;SDS011;59081;42.706;23.306;2023-06-14T07:13:32;18.83;;;13.38;;
43933;SDS011;59081;42.706;23.306;2023-06-14T07:15:58;16.63;;;12.85;;
43933;SDS011;59081;42.706;23.306;2023-06-14T07:18:25;17.42;;;12.57;;
43933;SDS011;59081;42.706;23.306;2023-06-14T07:20:51;17.05;;;12.43;;
43933;SDS011;59081;42.706;23.306;2023-06-14T07:23:18;17.65;;;12.15;;
43933;SDS011;59081;42.706;23.306;2023-06-14T07:25:45;18.08;;;12.50;;
43933;SDS011;59081;42.706;23.306;2023-06-14T07:28:10;20.02;;;13.50;;
43933;SDS011;59081;42.706;23.306;2023-06-14T07:30:38;19.80;;;13.18;;
43933;SDS011;59081;42.706;23.306;2023-06-14T07:33:05;20.02;;;13.35;;
43933;SDS011;59081;42.706;23.306;2023-06-14T07:35:31;17.50;;;13.90;;
43933;SDS011;59081;42.706;23.306;2023-06-14T07:37:56;16.88;;;12.25;;
43933;SDS011;59081;42.706;23.306;2023-06-14T07:40:22;17.25;;;12.10;;
43933;SDS011;59081;42.706;23.306;2023-06-14T07:42:47;16.27;;;13.23;;
43933;SDS011;59081;42.706;23.306;2023-06-14T07:45:15;15.13;;;12.20;;
43933;SDS011;59081;42.706;23.306;2023-06-14T07:47:41;17.90;;;12.60;;
43933;SDS011;59081;42.706;23.306;2023-06-14T07:50:07;16.83;;;11.95;;
43933;SDS011;59081;42.706;23.306;2023-06-14T07:52:33;18.35;;;13.05;;
43933;SDS011;59081;42.706;23.306;2023-06-14T07:54:58;14.15;;;11.32;;
43933;SDS011;59081;42.706;23.306;2023-06-14T07:57:24;13.10;;;10.77;;
43933;SDS011;59081;42.706;23.306;2023-06-14T07:59:49;14.35;;;11.20;;
43933;SDS011;59081;42.706;23.306;2023-06-14T08:02:15;14.98;;;10.73;;
43933;SDS011;59081;42.706;23.306;2023-06-14T08:04:41;16.40;;;9.75;;
43933;SDS011;59081;42.706;23.306;2023-06-14T08:07:07;11.27;;;10.10;;
43933;SDS011;59081;42.706;23.306;2023-06-14T08:09:33;10.75;;;9.65;;
43933;SDS011;59081;42.706;23.306;2023-06-14T08:11:58;13.77;;;11.05;;
43933;SDS011;59081;42.706;23.306;2023-06-14T08:14:25;12.32;;;10.20;;
43933;SDS011;59081;42.706;23.306;2023-06-14T08:16:50;14.23;;;10.18;;
43933;SDS011;59081;42.706;23.306;2023-06-14T08:19:16;11.90;;;9.02;;
43933;SDS011;59081;42.706;23.306;2023-06-14T08:21:42;13.00;;;8.60;;
43933;SDS011;59081;42.706;23.306;2023-06-14T08:24:08;9.65;;;8.63;;
43933;SDS011;59081;42.706;23.306;2023-06-14T08:26:37;14.13;;;8.88;;
43933;SDS011;59081;42.706;23.306;2023-06-14T08:29:03;11.43;;;8.57;;
43933;SDS011;59081;42.706;23.306;2023-06-14T08:31:29;14.10;;;9.00;;
43933;SDS011;59081;42.706;23.306;2023-06-14T08:33:56;11.68;;;8.18;;
43933;SDS011;59081;42.706;23.306;2023-06-14T08:36:22;13.02;;;9.45;;
43933;SDS011;59081;42.706;23.306;2023-06-14T08:38:48;9.88;;;7.95;;
43933;SDS011;59081;42.706;23.306;2023-06-14T08:41:14;11.00;;;8.02;;
43933;SDS011;59081;42.706;23.306;2023-06-14T08:43:45;13.45;;;8.55;;
43933;SDS011;59081;42.706;23.306;2023-06-14T08:46:12;12.48;;;8.82;;
43933;SDS011;59081;42.706;23.306;2023-06-14T08:48:43;12.80;;;9.93;;
43933;SDS011;59081;42.706;23.306;2023-06-14T08:51:09;15.10;;;10.45;;
43933;SDS011;59081;42.706;23.306;2023-06-14T08:53:36;14.93;;;9.27;;
43933;SDS011;59081;42.706;23.306;2023-06-14T08:56:07;15.55;;;8.73;;
43933;SDS011;59081;42.706;23.306;2023-06-14T08:58:42;11.25;;;7.80;;
43933;SDS011;59081;42.706;23.306;2023-06-14T09:01:10;12.00;;;8.63;;
43933;SDS011;59081;42.706;23.306;2023-06-14T09:03:39;11.15;;;8.00;;
43933;SDS011;59081;42.706;23.306;2023-06-14T09:06:06;9.90;;;7.90;;
43933;SDS011;59081;42.706;23.306;2023-06-14T09:08:34;12.57;;;8.60;;
43933;SDS011;59081;42.706;23.306;2023-06-14T09:11:01;15.35;;;9.30;;
43933;SDS011;59081;42.706;23.306;2023-06-14T09:13:27;9.88;;;8.75;;
43933;SDS011;59081;42.706;23.306;2023-06-14T09:15:53;11.43;;;8.75;;
43933;SDS011;59081;42.706;23.306;2023-06-14T09:18:19;12.05;;;9.13;;
43933;SDS011;59081;42.706;23.306;2023-06-14T09:20:45;10.77;;;8.77;;
43933;SDS011;59081;42.706;23.306;2023-06-14T09:23:12;15.68;;;8.85;;
43933;SDS011;59081;42.706;23.306;2023-06-14T09:25:41;12.10;;;8.10;;
43933;SDS011;59081;42.706;23.306;2023-06-14T09:28:11;13.88;;;9.02;;
43933;SDS011;59081;42.706;23.306;2023-06-14T09:30:39;10.70;;;9.38;;
43933;SDS011;59081;42.706;23.306;2023-06-14T09:33:05;12.82;;;9.25;;
43933;SDS011;59081;42.706;23.306;2023-06-14T09:35:31;11.02;;;9.15;;
43933;SDS011;59081;42.706;23.306;2023-06-14T09:38:00;10.68;;;9.05;;
43933;SDS011;59081;42.706;23.306;2023-06-14T09:40:28;11.65;;;9.85;;
43933;SDS011;59081;42.706;23.306;2023-06-14T09:42:59;13.07;;;9.20;;
43933;SDS011;59081;42.706;23.306;2023-06-14T09:45:25;11.00;;;8.95;;
43933;SDS011;59081;42.706;23.306;2023-06-14T09:47:54;12.43;;;8.98;;
43933;SDS011;59081;42.706;23.306;2023-06-14T09:50:20;15.27;;;9.70;;
43933;SDS011;59081;42.706;23.306;2023-06-14T09:52:46;15.70;;;10.88;;
43933;SDS011;59081;42.706;23.306;2023-06-14T09:57:44;13.30;;;9.77;;
43933;SDS011;59081;42.706;23.306;2023-06-14T10:00:13;13.00;;;10.18;;
43933;SDS011;59081;42.706;23.306;2023-06-14T10:02:40;13.60;;;10.18;;
43933;SDS011;59081;42.706;23.306;2023-06-14T10:05:12;14.65;;;10.07;;
43933;SDS011;59081;42.706;23.306;2023-06-14T10:07:44;11.32;;;9.23;;
43933;SDS011;59081;42.706;23.306;2023-06-14T10:10:16;16.88;;;10.00;;
43933;SDS011;59081;42.706;23.306;2023-06-14T10:12:42;15.48;;;9.88;;
43933;SDS011;59081;42.706;23.306;2023-06-14T10:15:09;12.60;;;10.02;;
43933;SDS011;59081;42.706;23.306;2023-06-14T10:17:43;15.68;;;10.95;;
43933;SDS011;59081;42.706;23.306;2023-06-14T10:22:52;12.07;;;9.48;;
43933;SDS011;59081;42.706;23.306;2023-06-14T10:25:27;12.27;;;8.63;;
43933;SDS011;59081;42.706;23.306;2023-06-14T10:28:02;12.13;;;9.57;;
43933;SDS011;59081;42.706;23.306;2023-06-14T10:31:05;11.57;;;10.15;;
43933;SDS011;59081;42.706;23.306;2023-06-14T10:33:37;12.65;;;8.60;;
43933;SDS011;59081;42.706;23.306;2023-06-14T10:36:25;11.73;;;9.20;;
43933;SDS011;59081;42.706;23.306;2023-06-14T10:39:09;11.13;;;8.25;;
43933;SDS011;59081;42.706;23.306;2023-06-14T10:41:40;12.00;;;9.85;;
43933;SDS011;59081;42.706;23.306;2023-06-14T10:46:38;14.55;;;10.27;;
43933;SDS011;59081;42.706;23.306;2023-06-14T10:49:04;14.38;;;8.95;;
43933;SDS011;59081;42.706;23.306;2023-06-14T10:51:37;14.23;;;8.23;;
43933;SDS011;59081;42.706;23.306;2023-06-14T10:54:11;10.85;;;9.75;;
43933;SDS011;59081;42.706;23.306;2023-06-14T10:56:47;9.38;;;8.43;;
43933;SDS011;59081;42.706;23.306;2023-06-14T10:59:20;11.00;;;9.70;;
43933;SDS011;59081;42.706;23.306;2023-06-14T11:01:51;12.32;;;9.23;;
43933;SDS011;59081;42.706;23.306;2023-06-14T11:04:46;10.93;;;9.65;;
43933;SDS011;59081;42.706;23.306;2023-06-14T11:07:18;12.55;;;8.88;;
43933;SDS011;59081;42.706;23.306;2023-06-14T11:13:05;13.63;;;9.85;;
43933;SDS011;59081;42.706;23.306;2023-06-14T11:15:35;18.40;;;9.63;;
43933;SDS011;59081;42.706;23.306;2023-06-14T11:18:02;11.80;;;9.50;;
43933;SDS011;59081;42.706;23.306;2023-06-14T11:20:30;19.83;;;8.77;;
43933;SDS011;59081;42.706;23.306;2023-06-14T11:22:57;13.18;;;8.80;;
43933;SDS011;59081;42.706;23.306;2023-06-14T11:25:23;9.38;;;8.07;;
43933;SDS011;59081;42.706;23.306;2023-06-14T11:27:49;9.65;;;8.23;;
43933;SDS011;59081;42.706;23.306;2023-06-14T11:30:15;14.13;;;8.95;;
43933;SDS011;59081;42.706;23.306;2023-06-14T11:32:41;12.23;;;9.00;;
43933;SDS011;59081;42.706;23.306;2023-06-14T11:35:07;9.57;;;7.78;;
43933;SDS011;59081;42.706;23.306;2023-06-14T11:37:35;7.82;;;6.88;;
43933;SDS011;59081;42.706;23.306;2023-06-14T11:40:07;20.08;;;8.95;;
43933;SDS011;59081;42.706;23.306;2023-06-14T11:42:38;8.05;;;7.22;;
43933;SDS011;59081;42.706;23.306;2023-06-14T11:45:11;13.90;;;7.38;;
43933;SDS011;59081;42.706;23.306;2023-06-14T11:47:38;11.00;;;7.72;;
43933;SDS011;59081;42.706;23.306;2023-06-14T11:50:08;9.80;;;7.50;;
43933;SDS011;59081;42.706;23.306;2023-06-14T11:52:34;10.93;;;7.35;;
43933;SDS011;59081;42.706;23.306;2023-06-14T11:55:01;7.32;;;6.47;;
43933;SDS011;59081;42.706;23.306;2023-06-14T11:57:30;11.50;;;6.63;;
43933;SDS011;59081;42.706;23.306;2023-06-14T11:59:59;7.55;;;6.43;;
43933;SDS011;59081;42.706;23.306;2023-06-14T12:08:21;9.23;;;6.75;;
43933;SDS011;59081;42.706;23.306;2023-06-14T12:11:03;9.27;;;6.95;;
43933;SDS011;59081;42.706;23.306;2023-06-14T12:13:29;9.70;;;7.38;;
43933;SDS011;59081;42.706;23.306;2023-06-14T12:15:58;9.38;;;6.72;;
43933;SDS011;59081;42.706;23.306;2023-06-14T12:18:33;8.60;;;6.68;;
43933;SDS011;59081;42.706;23.306;2023-06-14T12:21:00;7.95;;;7.15;;
43933;SDS011;59081;42.706;23.306;2023-06-14T12:23:27;10.13;;;6.68;;
43933;SDS011;59081;42.706;23.306;2023-06-14T12:26:07;6.67;;;5.83;;
43933;SDS011;59081;42.706;23.306;2023-06-14T12:28:32;6.70;;;5.93;;
43933;SDS011;59081;42.706;23.306;2023-06-14T12:30:58;10.45;;;6.47;;
43933;SDS011;59081;42.706;23.306;2023-06-14T12:33:24;6.60;;;5.57;;
43933;SDS011;59081;42.706;23.306;2023-06-14T12:35:50;7.82;;;6.38;;
43933;SDS011;59081;42.706;23.306;2023-06-14T12:38:16;6.78;;;5.45;;
43933;SDS011;59081;42.706;23.306;2023-06-14T12:40:42;7.65;;;6.85;;
43933;SDS011;59081;42.706;23.306;2023-06-14T12:43:07;6.15;;;5.55;;
43933;SDS011;59081;42.706;23.306;2023-06-14T13:04:58;10.43;;;5.45;;
43933;SDS011;59081;42.706;23.306;2023-06-14T13:07:25;9.30;;;5.28;;
43933;SDS011;59081;42.706;23.306;2023-06-14T13:09:51;9.32;;;6.65;;
43933;SDS011;59081;42.706;23.306;2023-06-14T13:12:16;9.02;;;4.68;;
43933;SDS011;59081;42.706;23.306;2023-06-14T13:14:42;7.05;;;4.93;;
43933;SDS011;59081;42.706;23.306;2023-06-14T13:17:08;6.40;;;4.40;;
43933;SDS011;59081;42.706;23.306;2023-06-14T13:19:35;5.78;;;4.68;;
43933;SDS011;59081;42.706;23.306;2023-06-14T13:22:00;6.32;;;4.55;;
43933;SDS011;59081;42.706;23.306;2023-06-14T13:24:26;5.00;;;3.80;;
43933;SDS011;59081;42.706;23.306;2023-06-14T13:26:53;3.90;;;3.55;;
43933;SDS011;59081;42.706;23.306;2023-06-14T13:29:19;4.20;;;3.17;;
43933;SDS011;59081;42.706;23.306;2023-06-14T13:31:48;3.70;;;2.58;;
43933;SDS011;59081;42.706;23.306;2023-06-14T13:34:13;5.47;;;3.85;;
43933;SDS011;59081;42.706;23.306;2023-06-14T13:36:39;6.50;;;5.50;;
43933;SDS011;59081;42.706;23.306;2023-06-14T13:39:05;8.02;;;4.22;;
43933;SDS011;59081;42.706;23.306;2023-06-14T13:41:32;7.00;;;4.30;;
43933;SDS011;59081;42.706;23.306;2023-06-14T13:43:59;6.30;;;4.80;;
43933;SDS011;59081;42.706;23.306;2023-06-14T13:46:26;9.50;;;5.50;;
43933;SDS011;59081;42.706;23.306;2023-06-14T13:48:52;7.32;;;4.47;;
43933;SDS011;59081;42.706;23.306;2023-06-14T13:51:19;6.65;;;4.65;;
43933;SDS011;59081;42.706;23.306;2023-06-14T13:53:46;9.65;;;5.75;;
43933;SDS011;59081;42.706;23.306;2023-06-14T13:56:12;8.77;;;6.53;;
43933;SDS011;59081;42.706;23.306;2023-06-14T13:58:38;9.32;;;6.32;;
43933;SDS011;59081;42.706;23.306;2023-06-14T14:01:04;7.47;;;6.40;;
43933;SDS011;59081;42.706;23.306;2023-06-14T14:03:31;10.52;;;6.95;;
43933;SDS011;59081;42.706;23.306;2023-06-14T14:06:00;11.20;;;6.03;;
43933;SDS011;59081;42.706;23.306;2023-06-14T14:08:36;7.38;;;5.45;;
43933;SDS011;59081;42.706;23.306;2023-06-14T14:11:03;7.75;;;5.97;;
43933;SDS011;59081;42.706;23.306;2023-06-14T14:13:32;8.88;;;4.95;;
43933;SDS011;59081;42.706;23.306;2023-06-14T14:15:58;9.85;;;6.57;;
43933;SDS011;59081;42.706;23.306;2023-06-14T14:18:24;9.82;;;7.03;;
43933;SDS011;59081;42.706;23.306;2023-06-14T14:20:56;7.75;;;6.10;;
43933;SDS011;59081;42.706;23.306;2023-06-14T14:23:21;9.73;;;6.20;;
43933;SDS011;59081;42.706;23.306;2023-06-14T14:25:47;8.50;;;6.63;;
43933;SDS011;59081;42.706;23.306;2023-06-14T14:28:13;10.88;;;7.20;;
43933;SDS011;59081;42.706;23.306;2023-06-14T14:30:41;7.80;;;6.15;;
43933;SDS011;59081;42.706;23.306;2023-06-14T14:33:07;7.82;;;6.43;;
43933;SDS011;59081;42.706;23.306;2023-06-14T14:35:41;6.72;;;5.55;;
43933;SDS011;59081;42.706;23.306;2023-06-14T14:38:08;9.23;;;6.53;;
43933;SDS011;59081;42.706;23.306;2023-06-14T14:40:34;8.18;;;6.60;;
43933;SDS011;59081;42.706;23.306;2023-06-14T14:43:01;12.00;;;6.60;;
43933;SDS011;59081;42.706;23.306;2023-06-14T14:45:27;12.93;;;5.35;;
43933;SDS011;59081;42.706;23.306;2023-06-14T14:47:53;7.57;;;5.38;;
43933;SDS011;59081;42.706;23.306;2023-06-14T14:50:19;9.85;;;5.72;;
43933;SDS011;59081;42.706;23.306;2023-06-14T14:52:48;14.23;;;6.40;;
43933;SDS011;59081;42.706;23.306;2023-06-14T14:55:18;8.48;;;5.82;;
43933;SDS011;59081;42.706;23.306;2023-06-14T14:57:45;7.53;;;5.07;;
43933;SDS011;59081;42.706;23.306;2023-06-14T15:00:11;9.35;;;5.50;;
43933;SDS011;59081;42.706;23.306;2023-06-14T15:02:41;10.48;;;5.40;;
43933;SDS011;59081;42.706;23.306;2023-06-14T15:05:07;10.40;;;5.90;;
43933;SDS011;59081;42.706;23.306;2023-06-14T15:07:37;6.10;;;4.45;;
43933;SDS011;59081;42.706;23.306;2023-06-14T15:10:05;7.90;;;5.43;;